Aviation Digital Data Service (ADDS)

Output produced by METARs form (1846 UTC 02 September 2014)
found at http://www.aviationweather.gov/adds/metars/
 
METAR text: KCMI 021753Z 24006KT 10SM BKN017 BKN033 24/21 A2996 RMK AO2 SLP139 T02390206 10244 20200 56004
Conditions at: KCMI (CHAMPAIGN/URBANA, IL, US) observed 1753 UTC 02 September 2014
Temperature: 23.9°C (75°F)
Dewpoint: 20.6°C (69°F) [RH = 82%]
Pressure (altimeter): 29.96 inches Hg (1014.6 mb)
[Sea-level pressure: 1013.9 mb]
Winds: from the WSW (240 degrees) at 7 MPH (6 knots; 3.1 m/s)
Visibility: 10 or more miles (16+ km)
Ceiling: 1700 feet AGL
Clouds: broken clouds at 1700 feet AGL
broken clouds at 3300 feet AGL
Weather: no significant weather observed at this time

METAR text: KCMI 021748Z 25005KT 10SM BKN017 BKN033 24/20 A2996 RMK AO2
Conditions at: KCMI (CHAMPAIGN/URBANA, IL, US) observed 1748 UTC 02 September 2014
Temperature: 24.0°C (75°F)
Dewpoint: 20.0°C (68°F) [RH = 78%]
Pressure (altimeter): 29.96 inches Hg (1014.6 mb)
Winds: from the WSW (250 degrees) at 6 MPH (5 knots; 2.6 m/s)
Visibility: 10 or more miles (16+ km)
Ceiling: 1700 feet AGL
Clouds: broken clouds at 1700 feet AGL
broken clouds at 3300 feet AGL
Weather: no significant weather observed at this time

METAR text: KCMI 021653Z VRB05KT 10SM BKN013 24/21 A2996 RMK AO2 SLP139 T02390206
Conditions at: KCMI (CHAMPAIGN/URBANA, IL, US) observed 1653 UTC 02 September 2014
Temperature: 23.9°C (75°F)
Dewpoint: 20.6°C (69°F) [RH = 82%]
Pressure (altimeter): 29.96 inches Hg (1014.6 mb)
[Sea-level pressure: 1013.9 mb]
Winds: variable direction winds at 6 MPH (5 knots; 2.6 m/s)
Visibility: 10 or more miles (16+ km)
Ceiling: 1300 feet AGL
Clouds: broken clouds at 1300 feet AGL
Weather: no significant weather observed at this time

Forecast for: KCMI (CHAMPAIGN/URBANA, IL, US)
Text: KCMI 021728Z 0218/0318 25008KT P6SM VCSH BKN025
Forecast period: 1800 to 2000 UTC 02 September 2014
Forecast type: FROM: standard forecast or significant change
Winds: from the WSW (250 degrees) at 9 MPH (8 knots; 4.2 m/s)
Visibility: 6 or more miles (10+ km)
Ceiling: 2500 feet AGL
Clouds: broken clouds at 2500 feet AGL
Weather: VCSH  (showers in vicinity)
Text: FM022000 25005KT P6SM SCT025 BKN250
Forecast period: 2000 UTC 02 September 2014 to 0000 UTC 03 September 2014
Forecast type: FROM: standard forecast or significant change
Winds: from the WSW (250 degrees) at 6 MPH (5 knots; 2.6 m/s)
Visibility: 6 or more miles (10+ km)
Ceiling: 25000 feet AGL
Clouds: scattered clouds at 2500 feet AGL
broken clouds at 25000 feet AGL
Weather: no significant weather forecast for this period
Text: FM030000 VRB03KT P6SM SKC
Forecast period: 0000 to 0800 UTC 03 September 2014
Forecast type: FROM: standard forecast or significant change
Winds: variable direction winds at 3 MPH (3 knots; 1.6 m/s)
Visibility: 6 or more miles (10+ km)
Clouds: clear skies
Weather: no significant weather forecast for this period
Text: FM030800 VRB03KT 4SM BR SKC
Forecast period: 0800 to 1400 UTC 03 September 2014
Forecast type: FROM: standard forecast or significant change
Winds: variable direction winds at 3 MPH (3 knots; 1.6 m/s)
Visibility: 4 miles (6 km)
Clouds: clear skies
Weather: BR  (mist)
Text: TEMPO 0309/0313 2SM BR SCT005
Forecast period: 0900 to 1300 UTC 03 September 2014
Forecast type: TEMPORARY: The following changes expected for less than half the time period
Visibility: 2.00 miles (3.22 km)
Clouds: scattered clouds at 500 feet AGL
Weather: BR  (mist)
Text: FM031400 15008KT P6SM SCT025
Forecast period: 1400 to 1800 UTC 03 September 2014
Forecast type: FROM: standard forecast or significant change
Winds: from the SSE (150 degrees) at 9 MPH (8 knots; 4.2 m/s)
Visibility: 6 or more miles (10+ km)
Clouds: scattered clouds at 2500 feet AGL
Weather: no significant weather forecast for this period